Terminal Aerodrome Forecast
Issued by NWS

Home | Current Version | Previous Version | Text Only | Print | Product List | Glossary Off
Versions: 1 2 3 4 5 6 7 8 9 10 11 12 13 14

000
FTUS43 KOAX 181130
TAFCDR
TAF
KCDR 181130Z 1812/1912 VRB03KT P6SM SCT120 BKN250
     FM181700 18010G20KT P6SM BKN120
     FM190100 18008KT P6SM BKN200=

USA.gov is the U.S. government's official web portal to all federal, state and local government web resources and services.